createdAt,value
2023-05-25T00:01:30.346Z,11.55
2023-05-25T00:04:00.707Z,11.88
2023-05-25T00:06:30.063Z,10.77
2023-05-25T00:08:59.159Z,12.50
2023-05-25T00:11:28.134Z,12.82
2023-05-25T00:13:56.420Z,12.48
2023-05-25T00:16:26.159Z,11.80
2023-05-25T00:18:57.430Z,11.18
2023-05-25T00:21:27.765Z,13.20
2023-05-25T00:23:55.999Z,15.77
2023-05-25T00:26:24.202Z,14.20
2023-05-25T00:28:52.611Z,13.80
2023-05-25T00:31:21.255Z,12.10
2023-05-25T00:33:51.479Z,15.13
2023-05-25T00:36:19.747Z,13.00
2023-05-25T00:38:48.178Z,11.85
2023-05-25T00:41:18.324Z,14.23
2023-05-25T00:43:47.455Z,11.63
2023-05-25T00:46:17.068Z,13.35
2023-05-25T00:48:45.432Z,12.23
2023-05-25T00:51:16.515Z,12.30
2023-05-25T00:53:44.911Z,13.25
2023-05-25T00:56:20.286Z,14.68
2023-05-25T00:58:51.731Z,13.30
2023-05-25T01:03:53.864Z,9.85
2023-05-25T01:06:27.036Z,12.40
2023-05-25T01:09:00.715Z,14.18
2023-05-25T01:11:33.460Z,12.90
2023-05-25T01:14:01.877Z,12.45
2023-05-25T01:16:31.008Z,13.68
2023-05-25T01:18:59.224Z,11.02
2023-05-25T01:21:33.841Z,12.70
2023-05-25T01:24:08.403Z,14.02
2023-05-25T01:26:43.824Z,13.05
2023-05-25T01:29:13.964Z,11.82
2023-05-25T01:31:42.655Z,14.68
2023-05-25T01:34:12.312Z,12.05
2023-05-25T01:36:42.287Z,12.00
2023-05-25T01:39:12.775Z,10.73
2023-05-25T01:41:40.952Z,12.77
2023-05-25T01:44:09.635Z,11.75
2023-05-25T01:46:39.682Z,13.30
2023-05-25T01:49:17.308Z,12.80
2023-05-25T01:51:55.904Z,11.05
2023-05-25T01:54:30.238Z,12.07
2023-05-25T01:57:01.964Z,11.80
2023-05-25T01:59:32.468Z,14.13
2023-05-25T02:02:02.832Z,12.93
2023-05-25T02:04:31.753Z,13.45
2023-05-25T02:07:01.421Z,14.18
2023-05-25T02:09:29.657Z,11.45
2023-05-25T02:11:57.923Z,15.10
2023-05-25T02:14:26.867Z,12.80
2023-05-25T02:16:55.243Z,12.73
2023-05-25T02:19:23.463Z,13.07
2023-05-25T02:21:51.846Z,14.52
2023-05-25T02:24:24.647Z,12.45
2023-05-25T02:26:53.071Z,13.13
2023-05-25T02:29:21.280Z,13.73
2023-05-25T02:31:49.554Z,18.75
2023-05-25T02:34:17.873Z,13.13
2023-05-25T02:36:46.157Z,14.20
2023-05-25T02:39:14.370Z,13.82
2023-05-25T02:41:43.962Z,12.30
2023-05-25T02:44:12.175Z,13.73
2023-05-25T02:46:40.563Z,13.18
2023-05-25T02:49:08.807Z,13.90
2023-05-25T02:51:37.130Z,16.05
2023-05-25T02:54:05.593Z,15.68
2023-05-25T02:56:33.866Z,13.98
2023-05-25T02:59:03.480Z,13.63
2023-05-25T03:01:31.993Z,15.82
2023-05-25T03:04:00.373Z,14.63
2023-05-25T03:06:28.828Z,18.70
2023-05-25T03:08:57.114Z,13.30
2023-05-25T03:11:25.431Z,13.75
2023-05-25T03:13:53.714Z,17.60
2023-05-25T03:16:24.343Z,14.63
2023-05-25T03:18:52.566Z,15.63
2023-05-25T03:21:22.442Z,14.52
2023-05-25T03:23:50.732Z,15.57
2023-05-25T03:26:18.913Z,13.98
2023-05-25T03:28:47.100Z,12.85
2023-05-25T03:31:15.336Z,15.93
2023-05-25T03:33:44.929Z,17.23
2023-05-25T03:36:13.795Z,15.68
2023-05-25T03:38:41.999Z,17.20
2023-05-25T03:41:10.233Z,16.73
2023-05-25T03:43:38.470Z,15.70
2023-05-25T03:46:06.838Z,16.08
2023-05-25T03:48:35.125Z,20.85
2023-05-25T03:51:05.140Z,20.10
2023-05-25T03:53:33.367Z,11.93
2023-05-25T03:56:01.787Z,16.75
2023-05-25T03:58:30.586Z,17.70
2023-05-25T04:00:58.866Z,17.65
2023-05-25T04:03:27.858Z,16.73
2023-05-25T04:05:58.205Z,18.80
2023-05-25T04:08:29.301Z,15.88
2023-05-25T04:10:57.710Z,16.27
2023-05-25T04:13:26.330Z,15.35
2023-05-25T04:15:54.607Z,16.80
2023-05-25T04:18:22.918Z,20.83
2023-05-25T04:20:51.378Z,17.98
2023-05-25T04:23:21.307Z,17.13
2023-05-25T04:25:52.317Z,16.77
2023-05-25T04:28:20.853Z,16.20
2023-05-25T04:30:49.147Z,17.13
2023-05-25T04:33:17.954Z,15.73
2023-05-25T04:35:46.850Z,18.98
2023-05-25T04:38:17.689Z,17.40
2023-05-25T04:40:46.497Z,16.27
2023-05-25T04:43:18.337Z,15.13
2023-05-25T04:45:47.266Z,17.33
2023-05-25T04:48:15.724Z,15.13
2023-05-25T04:50:44.118Z,16.83
2023-05-25T04:53:12.321Z,13.20
2023-05-25T04:55:41.209Z,13.60
2023-05-25T04:58:09.441Z,13.50
2023-05-25T05:00:40.281Z,13.60
2023-05-25T05:03:09.042Z,15.13
2023-05-25T05:05:37.368Z,13.52
2023-05-25T05:08:05.940Z,13.10
2023-05-25T05:10:34.133Z,17.60
2023-05-25T05:13:02.364Z,13.23
2023-05-25T05:15:30.934Z,15.77
2023-05-25T05:18:00.803Z,16.17
2023-05-25T05:20:29.179Z,13.10
2023-05-25T05:22:57.420Z,14.13
2023-05-25T05:25:25.616Z,13.70
2023-05-25T05:27:53.864Z,14.98
2023-05-25T05:30:22.360Z,11.50
2023-05-25T05:32:50.588Z,12.75
2023-05-25T05:35:20.281Z,12.40
2023-05-25T05:37:51.085Z,11.82
2023-05-25T05:40:19.636Z,12.38
2023-05-25T05:42:47.831Z,13.43
2023-05-25T05:45:16.087Z,9.77
2023-05-25T05:47:44.328Z,11.95
2023-05-25T05:50:12.948Z,12.35
2023-05-25T05:52:42.568Z,9.90
2023-05-25T05:55:11.285Z,12.50
2023-05-25T05:57:39.539Z,9.23
2023-05-25T06:00:09.270Z,7.93
2023-05-25T06:02:39.368Z,11.02
2023-05-25T06:05:10.430Z,7.35
2023-05-25T06:07:38.800Z,7.22
2023-05-25T06:10:09.709Z,8.30
2023-05-25T06:12:38.331Z,7.57
2023-05-25T06:15:07.638Z,11.63
2023-05-25T06:17:36.250Z,10.18
2023-05-25T06:20:06.611Z,9.45
2023-05-25T06:22:34.948Z,12.50
2023-05-25T06:25:03.284Z,10.60
2023-05-25T06:27:32.886Z,10.00
2023-05-25T06:30:01.081Z,10.70
2023-05-25T06:32:29.360Z,10.02
2023-05-25T06:34:57.559Z,12.18
2023-05-25T06:37:25.952Z,11.10
2023-05-25T06:39:56.297Z,11.55
2023-05-25T06:42:25.801Z,9.05
2023-05-25T06:44:55.386Z,10.00
2023-05-25T06:47:23.646Z,10.20
2023-05-25T06:49:51.889Z,8.68
2023-05-25T06:52:20.112Z,8.00
2023-05-25T06:54:48.289Z,8.57
2023-05-25T06:57:16.574Z,7.88
2023-05-25T06:59:44.777Z,9.75
2023-05-25T07:02:14.355Z,8.30
2023-05-25T07:04:42.633Z,7.68
2023-05-25T07:07:12.644Z,7.03
2023-05-25T07:09:41.701Z,9.35
2023-05-25T07:12:11.138Z,8.55
2023-05-25T07:14:39.433Z,6.20
2023-05-25T07:17:08.434Z,5.55
2023-05-25T07:19:37.997Z,7.07
2023-05-25T07:22:06.493Z,6.38
2023-05-25T07:24:34.766Z,5.07
2023-05-25T07:27:03.553Z,6.53
2023-05-25T07:29:31.752Z,8.35
2023-05-25T07:31:59.969Z,5.38
2023-05-25T07:34:28.554Z,5.25
2023-05-25T07:36:58.115Z,4.38
2023-05-25T07:39:26.383Z,5.07
2023-05-25T07:41:54.590Z,4.85
2023-05-25T07:44:22.803Z,4.35
2023-05-25T07:46:51.098Z,5.25
2023-05-25T07:49:19.343Z,7.78
2023-05-25T07:51:47.557Z,5.22
2023-05-25T07:54:17.200Z,4.90
2023-05-25T07:56:45.356Z,4.13
2023-05-25T07:59:14.381Z,4.50
2023-05-25T08:01:42.598Z,6.00
2023-05-25T08:04:10.968Z,4.63
2023-05-25T08:06:39.263Z,3.70
2023-05-25T08:09:08.157Z,4.68
2023-05-25T08:11:37.853Z,3.83
2023-05-25T08:14:06.121Z,3.88
2023-05-25T08:16:34.410Z,3.83
2023-05-25T08:19:02.642Z,4.57
2023-05-25T08:21:34.945Z,5.22
2023-05-25T08:24:05.096Z,5.82
2023-05-25T08:26:52.380Z,5.23
2023-05-25T08:29:23.246Z,4.45
2023-05-25T08:31:52.037Z,4.53
2023-05-25T08:34:20.431Z,6.05
2023-05-25T08:36:48.711Z,5.05
2023-05-25T08:39:16.954Z,3.92
2023-05-25T08:41:46.166Z,4.35
2023-05-25T08:44:14.792Z,6.20
2023-05-25T08:46:44.914Z,3.67
2023-05-25T08:49:14.600Z,4.43
2023-05-25T08:51:44.728Z,4.32
2023-05-25T08:54:14.609Z,7.13
2023-05-25T08:56:50.069Z,4.95
2023-05-25T08:59:33.234Z,4.90
2023-05-25T09:02:17.206Z,4.68
2023-05-25T09:04:46.156Z,4.13
2023-05-25T09:07:15.375Z,4.30
2023-05-25T09:09:44.704Z,4.22
2023-05-25T09:12:14.116Z,3.60
2023-05-25T09:14:45.865Z,3.75
2023-05-25T09:17:16.047Z,4.50
2023-05-25T09:19:44.980Z,4.30
2023-05-25T09:22:16.276Z,4.32
2023-05-25T09:24:45.553Z,4.13
2023-05-25T09:27:17.458Z,4.82
2023-05-25T09:29:46.441Z,4.55
2023-05-25T09:32:16.502Z,4.30
2023-05-25T09:34:45.100Z,5.30
2023-05-25T09:37:14.826Z,3.95
2023-05-25T09:39:44.130Z,4.57
2023-05-25T09:42:13.186Z,5.05
2023-05-25T09:44:42.831Z,4.55
2023-05-25T09:47:11.189Z,4.47
2023-05-25T09:49:40.768Z,4.32
2023-05-25T09:52:09.036Z,4.15
2023-05-25T09:54:38.450Z,5.32
2023-05-25T09:57:07.448Z,5.00
2023-05-25T09:59:35.814Z,4.68
2023-05-25T10:02:04.014Z,5.97
2023-05-25T10:04:32.333Z,4.22
2023-05-25T10:07:02.602Z,4.32
2023-05-25T10:09:31.722Z,4.50
2023-05-25T10:12:01.418Z,3.28
2023-05-25T10:14:30.832Z,3.65
2023-05-25T10:17:00.726Z,4.30
2023-05-25T10:19:36.953Z,3.50
2023-05-25T10:22:14.993Z,4.45
2023-05-25T10:24:49.501Z,4.07
2023-05-25T10:27:27.065Z,4.50
2023-05-25T10:29:57.480Z,4.45
2023-05-25T10:32:26.678Z,5.43
2023-05-25T10:34:56.690Z,3.80
2023-05-25T10:37:28.280Z,3.23
2023-05-25T10:39:57.990Z,4.60
2023-05-25T10:42:27.773Z,5.88
2023-05-25T10:44:56.741Z,4.65
2023-05-25T10:47:26.112Z,4.25
2023-05-25T10:49:56.412Z,5.35
2023-05-25T10:52:28.916Z,4.38
2023-05-25T10:54:58.142Z,4.82
2023-05-25T10:57:27.346Z,4.30
2023-05-25T11:00:00.024Z,4.05
2023-05-25T11:02:29.958Z,4.82
2023-05-25T11:05:33.324Z,5.45
2023-05-25T11:08:04.763Z,5.07
2023-05-25T11:10:55.939Z,4.18
2023-05-25T11:13:41.369Z,5.32
2023-05-25T11:16:20.788Z,4.43
2023-05-25T11:18:54.621Z,5.25
2023-05-25T11:21:25.279Z,6.30
2023-05-25T11:23:59.649Z,4.90
2023-05-25T11:26:29.586Z,5.75
2023-05-25T11:28:59.957Z,6.27
2023-05-25T11:31:36.443Z,5.53
2023-05-25T11:34:07.392Z,4.60
2023-05-25T11:36:37.243Z,4.72
2023-05-25T11:39:14.264Z,5.22
2023-05-25T11:41:51.427Z,5.22
2023-05-25T11:44:28.405Z,5.15
2023-05-25T11:46:58.503Z,7.18
2023-05-25T11:49:26.789Z,5.78
2023-05-25T11:51:55.256Z,5.10
2023-05-25T11:54:26.383Z,5.30
2023-05-25T11:56:57.424Z,6.20
2023-05-25T11:59:27.217Z,6.40
2023-05-25T12:01:58.458Z,6.13
2023-05-25T12:04:27.001Z,7.13
2023-05-25T12:07:02.969Z,4.88
2023-05-25T12:09:33.287Z,5.65
2023-05-25T12:12:03.996Z,6.05
2023-05-25T12:17:01.206Z,6.13
2023-05-25T12:19:29.696Z,6.47
2023-05-25T12:21:58.192Z,5.22
2023-05-25T12:24:26.445Z,6.45
2023-05-25T12:26:57.526Z,7.30
2023-05-25T12:29:26.662Z,6.13
2023-05-25T12:32:02.560Z,6.03
2023-05-25T12:34:30.791Z,5.50
2023-05-25T12:36:59.173Z,7.40
2023-05-25T12:39:38.980Z,8.00
2023-05-25T12:42:16.262Z,6.90
2023-05-25T12:44:46.788Z,7.88
2023-05-25T12:47:17.500Z,7.20
2023-05-25T12:49:47.915Z,7.20
2023-05-25T12:52:34.258Z,8.48
2023-05-25T12:55:20.853Z,7.63
2023-05-25T12:57:52.609Z,9.02
2023-05-25T13:00:22.410Z,8.70
2023-05-25T13:02:51.035Z,9.50
2023-05-25T13:05:23.468Z,8.68
2023-05-25T13:07:52.084Z,11.23
2023-05-25T13:10:20.635Z,9.82
2023-05-25T13:12:51.079Z,7.80
2023-05-25T13:15:21.211Z,8.48
2023-05-25T13:17:50.524Z,10.50
2023-05-25T13:20:20.315Z,10.05
2023-05-25T13:22:49.956Z,9.95
2023-05-25T13:25:18.162Z,10.57
2023-05-25T13:27:51.213Z,9.10
2023-05-25T13:30:20.887Z,12.13
2023-05-25T13:32:51.334Z,11.48
2023-05-25T13:35:34.231Z,13.63
2023-05-25T13:38:02.499Z,9.48
2023-05-25T13:40:30.867Z,13.25
2023-05-25T13:43:00.456Z,11.05
2023-05-25T13:45:28.662Z,10.07
2023-05-25T13:47:56.952Z,10.50
2023-05-25T13:50:25.226Z,9.02
2023-05-25T13:52:53.427Z,8.90
2023-05-25T13:55:22.841Z,8.25
2023-05-25T13:57:51.907Z,9.52
2023-05-25T14:00:22.134Z,10.48
2023-05-25T14:02:50.503Z,9.48
2023-05-25T14:05:19.917Z,7.45
2023-05-25T14:07:48.505Z,10.25
2023-05-25T14:10:17.214Z,9.00
2023-05-25T14:12:45.883Z,10.32
2023-05-25T14:15:14.195Z,8.95
2023-05-25T14:17:43.847Z,10.93
2023-05-25T14:20:16.072Z,10.07
2023-05-25T14:22:44.457Z,11.63
2023-05-25T14:25:12.771Z,10.80
2023-05-25T14:27:41.050Z,12.57
2023-05-25T14:30:11.386Z,10.30
2023-05-25T14:32:39.625Z,8.60
2023-05-25T14:35:10.215Z,9.38
2023-05-25T14:37:38.440Z,11.13
2023-05-25T14:40:07.591Z,11.00
2023-05-25T14:42:35.935Z,11.98
2023-05-25T14:45:04.223Z,10.30
2023-05-25T14:47:32.534Z,9.63
2023-05-25T14:50:00.810Z,11.38
2023-05-25T14:52:30.574Z,13.38
2023-05-25T14:54:58.781Z,10.55
2023-05-25T14:57:27.384Z,10.27
2023-05-25T14:59:56.106Z,11.25
2023-05-25T15:02:24.517Z,9.68
2023-05-25T15:04:54.186Z,10.77
2023-05-25T15:07:22.545Z,10.20
2023-05-25T15:09:52.166Z,13.30
2023-05-25T15:12:20.374Z,10.75
2023-05-25T15:14:48.555Z,10.93
2023-05-25T15:17:16.759Z,11.25
2023-05-25T15:19:44.969Z,11.63
2023-05-25T15:22:13.203Z,9.32
2023-05-25T15:24:41.426Z,11.55
2023-05-25T15:27:11.101Z,9.13
2023-05-25T15:29:39.331Z,11.10
2023-05-25T15:32:10.314Z,10.48
2023-05-25T15:34:38.581Z,10.13
2023-05-25T15:37:07.134Z,9.27
2023-05-25T15:39:35.388Z,9.85
2023-05-25T15:42:03.833Z,10.35
2023-05-25T15:44:33.394Z,10.43
2023-05-25T15:47:01.614Z,10.80
2023-05-25T15:49:29.784Z,9.77
2023-05-25T15:51:57.958Z,10.23
2023-05-25T15:54:26.155Z,9.55
2023-05-25T15:56:54.345Z,9.32
2023-05-25T15:59:22.621Z,9.07
2023-05-25T16:01:52.401Z,10.35
2023-05-25T16:04:20.857Z,10.43
2023-05-25T16:06:49.287Z,11.95
2023-05-25T16:09:17.446Z,9.18
2023-05-25T16:11:45.664Z,8.48
2023-05-25T16:14:13.866Z,9.32
2023-05-25T16:16:42.530Z,10.38
2023-05-25T16:19:14.060Z,10.27
2023-05-25T16:21:42.682Z,9.52
2023-05-25T16:24:10.861Z,9.38
2023-05-25T16:26:39.065Z,9.40
2023-05-25T16:29:07.268Z,9.23
2023-05-25T16:31:35.658Z,10.10
2023-05-25T16:34:03.983Z,11.10
2023-05-25T16:36:33.553Z,11.05
2023-05-25T16:39:01.780Z,10.27
2023-05-25T16:41:29.970Z,12.00
2023-05-25T16:44:01.581Z,11.52
2023-05-25T16:46:30.092Z,8.68
2023-05-25T16:48:58.339Z,9.55
2023-05-25T16:51:26.623Z,10.45
2023-05-25T16:53:56.300Z,9.07
2023-05-25T16:56:24.696Z,8.88
2023-05-25T16:58:52.893Z,10.55
2023-05-25T17:01:21.386Z,9.90
2023-05-25T17:03:49.770Z,10.05
2023-05-25T17:06:18.073Z,9.18
2023-05-25T17:08:46.316Z,9.77
2023-05-25T17:11:15.953Z,10.25
2023-05-25T17:13:44.208Z,11.00
2023-05-25T17:16:12.379Z,12.57
2023-05-25T17:18:41.743Z,10.38
2023-05-25T17:21:09.986Z,10.10
2023-05-25T17:23:38.207Z,9.60
2023-05-25T17:26:06.592Z,11.70
2023-05-25T17:28:36.161Z,11.30
2023-05-25T17:31:04.424Z,10.93
2023-05-25T17:33:32.661Z,8.63
2023-05-25T17:36:00.917Z,8.75
2023-05-25T17:38:29.124Z,9.38
2023-05-25T17:40:57.344Z,12.30
2023-05-25T17:43:25.700Z,13.25
2023-05-25T17:45:55.376Z,11.25
2023-05-25T17:48:23.663Z,10.93
2023-05-25T17:50:51.900Z,10.88
2023-05-25T17:53:20.088Z,9.63
2023-05-25T17:55:48.556Z,9.45
2023-05-25T17:58:16.766Z,11.90
2023-05-25T18:00:44.990Z,10.88
2023-05-25T18:03:14.808Z,10.52
2023-05-25T18:05:43.304Z,8.63
2023-05-25T18:08:11.747Z,10.90
2023-05-25T18:10:39.997Z,8.77
2023-05-25T18:13:08.237Z,8.85
2023-05-25T18:15:36.484Z,9.40
2023-05-25T18:18:06.718Z,7.72
2023-05-25T18:20:36.495Z,11.10
2023-05-25T18:23:06.687Z,9.32
2023-05-25T18:25:34.901Z,7.80
2023-05-25T18:28:03.155Z,9.93
2023-05-25T18:30:31.362Z,9.80
2023-05-25T18:32:59.713Z,11.32
2023-05-25T18:35:27.944Z,9.20
2023-05-25T18:37:57.747Z,8.85
2023-05-25T18:40:26.035Z,8.93
2023-05-25T18:42:54.245Z,10.50
2023-05-25T18:45:22.660Z,9.98
2023-05-25T18:47:50.971Z,8.55
2023-05-25T18:50:19.565Z,12.38
2023-05-25T18:52:50.898Z,10.32
2023-05-25T18:55:20.813Z,10.20
2023-05-25T18:57:49.003Z,12.15
2023-05-25T19:00:17.984Z,11.95
2023-05-25T19:02:46.259Z,10.02
2023-05-25T19:05:15.378Z,11.85
2023-05-25T19:07:58.571Z,10.48
2023-05-25T19:10:29.285Z,10.63
2023-05-25T19:12:58.340Z,13.52
2023-05-25T19:15:26.574Z,11.88
2023-05-25T19:17:54.782Z,10.52
2023-05-25T19:20:23.135Z,13.75
2023-05-25T19:22:51.477Z,11.45
2023-05-25T19:25:19.898Z,12.75
2023-05-25T19:27:49.587Z,18.48
2023-05-25T19:30:17.936Z,12.88
2023-05-25T19:32:46.178Z,11.90
2023-05-25T19:35:14.444Z,13.57
2023-05-25T19:37:42.686Z,12.65
2023-05-25T19:40:13.257Z,11.45
2023-05-25T19:42:41.787Z,12.48
2023-05-25T19:45:13.281Z,13.77
2023-05-25T19:47:41.591Z,14.45
2023-05-25T19:50:10.231Z,12.88
2023-05-25T19:52:38.541Z,15.57
2023-05-25T19:55:07.596Z,12.68
2023-05-25T19:57:35.843Z,12.00
2023-05-25T20:00:05.966Z,11.35
2023-05-25T20:02:37.138Z,11.48
2023-05-25T20:05:05.982Z,11.57
2023-05-25T20:07:34.176Z,9.98
2023-05-25T20:10:02.484Z,8.77
2023-05-25T20:12:30.670Z,11.90
2023-05-25T20:14:58.934Z,13.25
2023-05-25T20:17:27.990Z,8.25
2023-05-25T20:19:59.585Z,11.52
2023-05-25T20:22:28.077Z,9.68
2023-05-25T20:24:58.407Z,7.85
2023-05-25T20:27:26.709Z,8.52
2023-05-25T20:29:55.091Z,10.63
2023-05-25T20:32:23.312Z,11.23
2023-05-25T20:34:51.744Z,9.45
2023-05-25T20:37:21.308Z,9.00
2023-05-25T20:39:49.506Z,9.43
2023-05-25T20:42:17.760Z,10.20
2023-05-25T20:44:45.942Z,11.65
2023-05-25T20:47:14.109Z,10.20
2023-05-25T20:49:42.381Z,8.82
2023-05-25T20:52:10.679Z,9.00
2023-05-25T20:54:44.522Z,11.05
2023-05-25T20:57:13.303Z,11.80
2023-05-25T20:59:42.945Z,9.13
2023-05-25T21:02:11.341Z,9.95
2023-05-25T21:04:39.610Z,11.65
2023-05-25T21:07:07.956Z,9.50
2023-05-25T21:09:36.238Z,12.13
2023-05-25T21:12:07.598Z,9.70
2023-05-25T21:14:35.917Z,12.43
2023-05-25T21:17:04.122Z,9.48
2023-05-25T21:19:32.306Z,12.30
2023-05-25T21:22:00.558Z,11.70
2023-05-25T21:24:28.776Z,10.75
2023-05-25T21:26:57.000Z,11.13
2023-05-25T21:29:26.577Z,9.75
2023-05-25T21:31:54.868Z,12.05
2023-05-25T21:34:23.209Z,10.48
2023-05-25T21:36:51.499Z,8.35
2023-05-25T21:39:19.926Z,9.95
2023-05-25T21:41:48.098Z,9.80
2023-05-25T21:44:16.386Z,8.43
2023-05-25T21:46:46.068Z,8.60
2023-05-25T21:49:14.256Z,9.95
2023-05-25T21:51:42.819Z,10.27
2023-05-25T21:54:10.996Z,11.27
2023-05-25T21:56:39.239Z,10.55
2023-05-25T21:59:07.417Z,11.38
2023-05-25T22:01:35.676Z,10.10
2023-05-25T22:04:05.982Z,10.45
2023-05-25T22:06:34.186Z,11.13
2023-05-25T22:09:02.384Z,9.25
2023-05-25T22:11:30.696Z,11.90
2023-05-25T22:13:59.722Z,11.00
2023-05-25T22:16:27.895Z,10.90
2023-05-25T22:18:56.106Z,13.15
2023-05-25T22:21:25.782Z,11.57
2023-05-25T22:23:53.995Z,13.85
2023-05-25T22:26:22.890Z,9.00
2023-05-25T22:28:51.176Z,10.93
2023-05-25T22:31:19.394Z,9.85
2023-05-25T22:33:47.617Z,9.80
2023-05-25T22:36:16.328Z,11.45
2023-05-25T22:38:45.887Z,9.05
2023-05-25T22:41:14.228Z,8.82
2023-05-25T22:43:42.417Z,9.07
2023-05-25T22:46:10.694Z,12.20
2023-05-25T22:48:38.992Z,10.88
2023-05-25T22:51:07.252Z,10.93
2023-05-25T22:53:35.456Z,11.25
2023-05-25T22:56:05.181Z,9.57
2023-05-25T22:58:33.352Z,10.70
2023-05-25T23:01:01.547Z,10.10
2023-05-25T23:03:30.358Z,12.40
2023-05-25T23:05:58.776Z,10.60
2023-05-25T23:08:27.095Z,9.57
2023-05-25T23:10:55.331Z,11.20
2023-05-25T23:13:25.091Z,11.35
2023-05-25T23:15:55.406Z,9.90
2023-05-25T23:18:23.714Z,9.23
2023-05-25T23:20:51.917Z,11.43
2023-05-25T23:23:20.092Z,10.40
2023-05-25T23:25:48.569Z,10.60
2023-05-25T23:28:16.734Z,12.38
2023-05-25T23:30:46.455Z,10.10
2023-05-25T23:33:15.229Z,8.10
2023-05-25T23:35:43.711Z,8.98
2023-05-25T23:38:12.286Z,9.52
2023-05-25T23:40:40.485Z,11.00
2023-05-25T23:43:08.736Z,11.25
2023-05-25T23:45:36.955Z,9.15
2023-05-25T23:48:06.690Z,10.27
2023-05-25T23:50:35.814Z,10.43
2023-05-25T23:53:04.123Z,9.88
2023-05-25T23:55:32.313Z,10.43
2023-05-25T23:58:00.509Z,11.00
